sensor_id;sensor_type;location;lat;lon;timestamp;noise_LAeq;noise_LA_min;noise_LA_max;noise_LA01;noise_LA95
43385;Laerm;28988;48.042;7.584;2023-12-29T00:01:23;29.82;26.84;39.14;;
43385;Laerm;28988;48.042;7.584;2023-12-29T00:03:48;29.56;26.88;37.55;;
43385;Laerm;28988;48.042;7.584;2023-12-29T00:06:13;29.88;26.75;37.75;;
43385;Laerm;28988;48.042;7.584;2023-12-29T00:08:39;30.06;27.06;38.24;;
43385;Laerm;28988;48.042;7.584;2023-12-29T00:11:04;30.07;27.01;37.92;;
43385;Laerm;28988;48.042;7.584;2023-12-29T00:13:29;30.30;27.04;39.11;;
43385;Laerm;28988;48.042;7.584;2023-12-29T00:15:55;30.32;27.09;43.84;;
43385;Laerm;28988;48.042;7.584;2023-12-29T00:20:46;29.31;27.02;40.74;;
43385;Laerm;28988;48.042;7.584;2023-12-29T00:23:11;29.95;26.63;39.34;;
43385;Laerm;28988;48.042;7.584;2023-12-29T00:25:36;27.88;26.76;32.14;;
43385;Laerm;28988;48.042;7.584;2023-12-29T00:28:02;27.92;26.50;34.29;;
43385;Laerm;28988;48.042;7.584;2023-12-29T00:30:27;27.93;26.69;31.51;;
43385;Laerm;28988;48.042;7.584;2023-12-29T00:32:54;27.93;26.69;31.51;;
43385;Laerm;28988;48.042;7.584;2023-12-29T00:35:19;27.96;26.67;30.27;;
43385;Laerm;28988;48.042;7.584;2023-12-29T00:37:45;27.97;26.63;32.77;;
43385;Laerm;28988;48.042;7.584;2023-12-29T00:42:35;27.97;26.80;30.12;;
43385;Laerm;28988;48.042;7.584;2023-12-29T00:45:00;27.97;26.72;30.78;;
43385;Laerm;28988;48.042;7.584;2023-12-29T00:47:25;27.97;26.74;29.56;;
43385;Laerm;28988;48.042;7.584;2023-12-29T00:49:51;27.99;26.89;29.06;;
43385;Laerm;28988;48.042;7.584;2023-12-29T00:52:16;27.99;26.74;32.01;;
43385;Laerm;28988;48.042;7.584;2023-12-29T00:54:41;27.97;26.71;29.20;;
43385;Laerm;28988;48.042;7.584;2023-12-29T00:57:06;27.99;26.88;29.28;;
43385;Laerm;28988;48.042;7.584;2023-12-29T00:59:31;27.97;26.86;29.01;;
43385;Laerm;28988;48.042;7.584;2023-12-29T01:01:57;27.94;26.80;29.05;;
43385;Laerm;28988;48.042;7.584;2023-12-29T01:04:22;27.95;26.75;29.23;;
43385;Laerm;28988;48.042;7.584;2023-12-29T01:06:47;27.98;26.82;30.51;;
43385;Laerm;28988;48.042;7.584;2023-12-29T01:09:12;27.99;26.91;32.61;;
43385;Laerm;28988;48.042;7.584;2023-12-29T01:11:37;27.94;26.74;29.58;;
43385;Laerm;28988;48.042;7.584;2023-12-29T01:14:02;27.90;26.76;29.83;;
43385;Laerm;28988;48.042;7.584;2023-12-29T01:16:28;27.89;26.66;29.26;;
43385;Laerm;28988;48.042;7.584;2023-12-29T01:18:53;27.99;26.62;38.68;;
43385;Laerm;28988;48.042;7.584;2023-12-29T01:21:18;27.94;26.70;34.67;;
43385;Laerm;28988;48.042;7.584;2023-12-29T01:23:43;27.90;26.62;30.68;;
43385;Laerm;28988;48.042;7.584;2023-12-29T01:26:08;27.93;26.68;31.62;;
43385;Laerm;28988;48.042;7.584;2023-12-29T01:28:34;27.91;26.68;30.63;;
43385;Laerm;28988;48.042;7.584;2023-12-29T01:30:59;27.88;26.70;29.51;;
43385;Laerm;28988;48.042;7.584;2023-12-29T01:33:24;27.89;26.62;29.83;;
43385;Laerm;28988;48.042;7.584;2023-12-29T01:35:49;27.86;26.37;31.47;;
43385;Laerm;28988;48.042;7.584;2023-12-29T01:38:15;28.07;26.54;39.96;;
43385;Laerm;28988;48.042;7.584;2023-12-29T01:40:43;27.88;26.68;30.40;;
43385;Laerm;28988;48.042;7.584;2023-12-29T01:43:09;27.91;26.66;35.47;;
43385;Laerm;28988;48.042;7.584;2023-12-29T01:45:34;28.04;26.84;32.19;;
43385;Laerm;28988;48.042;7.584;2023-12-29T01:47:59;28.02;26.84;30.21;;
43385;Laerm;28988;48.042;7.584;2023-12-29T01:50:25;27.95;26.74;31.08;;
43385;Laerm;28988;48.042;7.584;2023-12-29T01:52:50;27.94;26.83;29.13;;
43385;Laerm;28988;48.042;7.584;2023-12-29T01:55:17;28.02;26.70;40.14;;
43385;Laerm;28988;48.042;7.584;2023-12-29T01:57:43;27.94;26.80;33.96;;
43385;Laerm;28988;48.042;7.584;2023-12-29T02:00:08;27.95;26.71;36.29;;
43385;Laerm;28988;48.042;7.584;2023-12-29T02:02:34;27.95;26.71;36.29;;
43385;Laerm;28988;48.042;7.584;2023-12-29T02:04:59;28.48;26.67;45.09;;
43385;Laerm;28988;48.042;7.584;2023-12-29T02:07:26;27.88;26.89;29.37;;
43385;Laerm;28988;48.042;7.584;2023-12-29T02:09:54;27.83;26.68;29.14;;
43385;Laerm;28988;48.042;7.584;2023-12-29T02:12:19;27.86;26.70;29.07;;
43385;Laerm;28988;48.042;7.584;2023-12-29T02:14:45;27.90;26.65;33.54;;
43385;Laerm;28988;48.042;7.584;2023-12-29T02:17:10;27.85;26.73;29.44;;
43385;Laerm;28988;48.042;7.584;2023-12-29T02:19:40;27.86;26.70;29.07;;
43385;Laerm;28988;48.042;7.584;2023-12-29T02:22:06;27.90;26.82;32.60;;
43385;Laerm;28988;48.042;7.584;2023-12-29T02:24:33;27.92;26.47;29.02;;
43385;Laerm;28988;48.042;7.584;2023-12-29T02:27:02;27.93;26.77;32.31;;
43385;Laerm;28988;48.042;7.584;2023-12-29T02:31:54;27.98;26.78;36.57;;
43385;Laerm;28988;48.042;7.584;2023-12-29T02:34:24;28.31;26.84;45.85;;
43385;Laerm;28988;48.042;7.584;2023-12-29T02:36:49;31.86;26.68;53.98;;
43385;Laerm;28988;48.042;7.584;2023-12-29T02:39:15;29.28;26.84;50.17;;
43385;Laerm;28988;48.042;7.584;2023-12-29T02:44:06;28.42;26.84;36.21;;
43385;Laerm;28988;48.042;7.584;2023-12-29T02:46:31;28.55;26.87;36.54;;
43385;Laerm;28988;48.042;7.584;2023-12-29T02:51:22;34.86;27.08;65.95;;
43385;Laerm;28988;48.042;7.584;2023-12-29T02:53:47;28.55;26.98;34.70;;
43385;Laerm;28988;48.042;7.584;2023-12-29T02:56:14;28.53;26.82;34.68;;
43385;Laerm;28988;48.042;7.584;2023-12-29T02:58:39;28.46;26.97;35.02;;
43385;Laerm;28988;48.042;7.584;2023-12-29T03:01:04;28.52;26.64;36.35;;
43385;Laerm;28988;48.042;7.584;2023-12-29T03:05:54;28.53;26.89;35.21;;
43385;Laerm;28988;48.042;7.584;2023-12-29T03:08:19;28.75;26.74;35.58;;
43385;Laerm;28988;48.042;7.584;2023-12-29T03:10:45;28.66;27.04;35.73;;
43385;Laerm;28988;48.042;7.584;2023-12-29T03:13:10;28.72;27.08;33.89;;
43385;Laerm;28988;48.042;7.584;2023-12-29T03:15:35;28.78;26.81;39.29;;
43385;Laerm;28988;48.042;7.584;2023-12-29T03:18:00;28.70;27.05;36.64;;
43385;Laerm;28988;48.042;7.584;2023-12-29T03:22:51;28.52;27.02;34.47;;
43385;Laerm;28988;48.042;7.584;2023-12-29T03:25:16;28.48;26.83;33.72;;
43385;Laerm;28988;48.042;7.584;2023-12-29T03:27:41;28.96;26.86;35.31;;
43385;Laerm;28988;48.042;7.584;2023-12-29T03:30:06;29.01;27.03;34.77;;
43385;Laerm;28988;48.042;7.584;2023-12-29T03:32:32;28.67;26.98;36.44;;
43385;Laerm;28988;48.042;7.584;2023-12-29T03:34:57;28.77;26.98;34.44;;
43385;Laerm;28988;48.042;7.584;2023-12-29T03:37:22;28.61;26.69;33.32;;
43385;Laerm;28988;48.042;7.584;2023-12-29T03:39:47;28.67;26.79;34.85;;
43385;Laerm;28988;48.042;7.584;2023-12-29T03:42:12;28.79;27.02;34.28;;
43385;Laerm;28988;48.042;7.584;2023-12-29T03:44:38;28.94;26.87;34.66;;
43385;Laerm;28988;48.042;7.584;2023-12-29T03:47:03;28.72;26.90;35.13;;
43385;Laerm;28988;48.042;7.584;2023-12-29T03:49:29;28.82;26.88;35.70;;
43385;Laerm;28988;48.042;7.584;2023-12-29T03:51:54;28.63;26.92;35.94;;
43385;Laerm;28988;48.042;7.584;2023-12-29T03:54:19;28.71;26.88;34.97;;
43385;Laerm;28988;48.042;7.584;2023-12-29T03:56:46;28.92;26.95;42.68;;
43385;Laerm;28988;48.042;7.584;2023-12-29T03:59:12;28.83;26.84;39.14;;
43385;Laerm;28988;48.042;7.584;2023-12-29T04:01:37;28.45;26.75;40.22;;
43385;Laerm;28988;48.042;7.584;2023-12-29T04:04:02;28.43;26.86;40.08;;
43385;Laerm;28988;48.042;7.584;2023-12-29T04:06:27;28.42;26.80;34.50;;
43385;Laerm;28988;48.042;7.584;2023-12-29T04:08:53;28.63;26.82;42.46;;
43385;Laerm;28988;48.042;7.584;2023-12-29T04:13:43;28.75;26.73;43.39;;
43385;Laerm;28988;48.042;7.584;2023-12-29T04:16:08;28.57;26.54;37.41;;
43385;Laerm;28988;48.042;7.584;2023-12-29T04:18:33;28.83;26.84;45.95;;
43385;Laerm;28988;48.042;7.584;2023-12-29T04:20:58;29.03;27.03;45.88;;
43385;Laerm;28988;48.042;7.584;2023-12-29T04:25:49;28.50;27.06;34.26;;
43385;Laerm;28988;48.042;7.584;2023-12-29T04:28:14;28.48;27.06;34.92;;
43385;Laerm;28988;48.042;7.584;2023-12-29T04:33:04;28.73;26.96;36.09;;
43385;Laerm;28988;48.042;7.584;2023-12-29T04:37:55;28.79;26.96;41.01;;
43385;Laerm;28988;48.042;7.584;2023-12-29T04:40:20;28.58;26.91;35.89;;
43385;Laerm;28988;48.042;7.584;2023-12-29T04:42:45;28.46;26.74;36.91;;
43385;Laerm;28988;48.042;7.584;2023-12-29T04:45:11;28.23;26.83;37.55;;
43385;Laerm;28988;48.042;7.584;2023-12-29T04:47:37;27.96;26.76;30.17;;
43385;Laerm;28988;48.042;7.584;2023-12-29T04:50:02;34.11;26.80;59.93;;
43385;Laerm;28988;48.042;7.584;2023-12-29T04:52:27;27.91;26.67;35.02;;
43385;Laerm;28988;48.042;7.584;2023-12-29T04:54:52;28.20;26.83;39.23;;
43385;Laerm;28988;48.042;7.584;2023-12-29T04:57:18;27.92;26.74;29.78;;
43385;Laerm;28988;48.042;7.584;2023-12-29T04:59:43;27.87;26.60;29.29;;
43385;Laerm;28988;48.042;7.584;2023-12-29T05:04:33;27.94;26.83;29.84;;
43385;Laerm;28988;48.042;7.584;2023-12-29T05:06:58;27.86;26.67;30.45;;
43385;Laerm;28988;48.042;7.584;2023-12-29T05:09:24;27.96;26.68;30.58;;
43385;Laerm;28988;48.042;7.584;2023-12-29T05:11:49;27.87;26.32;30.39;;
43385;Laerm;28988;48.042;7.584;2023-12-29T05:14:14;27.86;26.55;29.12;;
43385;Laerm;28988;48.042;7.584;2023-12-29T05:16:41;27.89;26.55;29.40;;
43385;Laerm;28988;48.042;7.584;2023-12-29T05:19:06;27.89;26.76;29.20;;
43385;Laerm;28988;48.042;7.584;2023-12-29T05:21:31;27.89;26.60;30.61;;
43385;Laerm;28988;48.042;7.584;2023-12-29T05:23:56;27.90;26.71;29.01;;
43385;Laerm;28988;48.042;7.584;2023-12-29T05:26:22;28.31;26.58;40.06;;
43385;Laerm;28988;48.042;7.584;2023-12-29T05:28:47;27.84;26.52;29.19;;
43385;Laerm;28988;48.042;7.584;2023-12-29T05:31:12;27.92;26.70;33.52;;
43385;Laerm;28988;48.042;7.584;2023-12-29T05:33:37;27.89;26.72;29.42;;
43385;Laerm;28988;48.042;7.584;2023-12-29T05:36:06;27.86;26.79;30.14;;
43385;Laerm;28988;48.042;7.584;2023-12-29T05:38:34;27.87;26.35;29.17;;
43385;Laerm;28988;48.042;7.584;2023-12-29T05:41:03;27.88;26.64;31.17;;
43385;Laerm;28988;48.042;7.584;2023-12-29T05:43:30;27.94;26.49;29.09;;
43385;Laerm;28988;48.042;7.584;2023-12-29T05:45:55;27.93;26.84;31.93;;
43385;Laerm;28988;48.042;7.584;2023-12-29T05:48:20;27.96;26.72;30.41;;
43385;Laerm;28988;48.042;7.584;2023-12-29T05:50:45;27.98;26.76;29.23;;
43385;Laerm;28988;48.042;7.584;2023-12-29T05:53:11;27.96;26.85;29.62;;
43385;Laerm;28988;48.042;7.584;2023-12-29T05:55:36;27.98;26.76;29.47;;
43385;Laerm;28988;48.042;7.584;2023-12-29T05:58:01;28.46;26.57;42.03;;
43385;Laerm;28988;48.042;7.584;2023-12-29T06:00:26;27.97;26.82;31.38;;
43385;Laerm;28988;48.042;7.584;2023-12-29T06:02:52;27.97;26.82;31.20;;
43385;Laerm;28988;48.042;7.584;2023-12-29T06:05:17;28.07;26.76;31.46;;
43385;Laerm;28988;48.042;7.584;2023-12-29T06:07:42;31.94;26.74;53.98;;
43385;Laerm;28988;48.042;7.584;2023-12-29T06:10:07;28.21;26.74;35.53;;
43385;Laerm;28988;48.042;7.584;2023-12-29T06:12:34;28.80;26.84;47.97;;
43385;Laerm;28988;48.042;7.584;2023-12-29T06:14:59;27.90;26.83;31.02;;
43385;Laerm;28988;48.042;7.584;2023-12-29T06:17:24;27.89;26.68;28.94;;
43385;Laerm;28988;48.042;7.584;2023-12-29T06:19:49;28.04;26.72;31.86;;
43385;Laerm;28988;48.042;7.584;2023-12-29T06:22:15;28.46;26.60;32.08;;
43385;Laerm;28988;48.042;7.584;2023-12-29T06:24:40;28.00;26.63;31.08;;
43385;Laerm;28988;48.042;7.584;2023-12-29T06:27:09;28.05;26.78;33.58;;
43385;Laerm;28988;48.042;7.584;2023-12-29T06:29:34;28.01;26.69;32.98;;
43385;Laerm;28988;48.042;7.584;2023-12-29T06:31:59;27.95;26.70;33.58;;
43385;Laerm;28988;48.042;7.584;2023-12-29T06:34:25;28.14;26.79;34.33;;
43385;Laerm;28988;48.042;7.584;2023-12-29T06:36:50;28.24;26.79;34.95;;
43385;Laerm;28988;48.042;7.584;2023-12-29T06:39:15;28.87;26.82;42.65;;
43385;Laerm;28988;48.042;7.584;2023-12-29T06:41:40;29.31;26.85;45.63;;
43385;Laerm;28988;48.042;7.584;2023-12-29T06:44:05;28.07;26.76;34.25;;
43385;Laerm;28988;48.042;7.584;2023-12-29T06:46:31;27.89;26.61;34.21;;
43385;Laerm;28988;48.042;7.584;2023-12-29T06:48:56;27.90;26.48;30.17;;
43385;Laerm;28988;48.042;7.584;2023-12-29T06:51:21;27.89;26.60;29.01;;
43385;Laerm;28988;48.042;7.584;2023-12-29T06:53:48;27.93;26.75;30.89;;
43385;Laerm;28988;48.042;7.584;2023-12-29T06:56:14;27.95;26.60;30.51;;
43385;Laerm;28988;48.042;7.584;2023-12-29T06:58:39;27.89;26.85;29.00;;
43385;Laerm;28988;48.042;7.584;2023-12-29T07:01:05;28.09;26.66;38.93;;
43385;Laerm;28988;48.042;7.584;2023-12-29T07:03:30;28.04;26.86;30.30;;
43385;Laerm;28988;48.042;7.584;2023-12-29T07:08:20;28.16;26.75;34.72;;
43385;Laerm;28988;48.042;7.584;2023-12-29T07:10:45;28.40;26.70;45.67;;
43385;Laerm;28988;48.042;7.584;2023-12-29T07:13:15;28.61;26.80;41.34;;
43385;Laerm;28988;48.042;7.584;2023-12-29T07:15:40;28.68;26.94;39.74;;
43385;Laerm;28988;48.042;7.584;2023-12-29T07:18:05;28.87;27.06;35.19;;
43385;Laerm;28988;48.042;7.584;2023-12-29T07:20:30;29.10;26.93;35.33;;
43385;Laerm;28988;48.042;7.584;2023-12-29T07:22:55;29.15;27.04;37.12;;
43385;Laerm;28988;48.042;7.584;2023-12-29T07:25:21;29.08;27.21;34.26;;
43385;Laerm;28988;48.042;7.584;2023-12-29T07:27:46;29.10;27.08;34.45;;
43385;Laerm;28988;48.042;7.584;2023-12-29T07:30:11;28.96;27.08;35.32;;
43385;Laerm;28988;48.042;7.584;2023-12-29T07:32:37;29.29;27.06;36.64;;
43385;Laerm;28988;48.042;7.584;2023-12-29T07:35:02;29.28;27.11;36.58;;
43385;Laerm;28988;48.042;7.584;2023-12-29T07:37:27;29.53;27.14;37.50;;
43385;Laerm;28988;48.042;7.584;2023-12-29T07:39:52;29.03;26.97;35.40;;
43385;Laerm;28988;48.042;7.584;2023-12-29T07:44:43;29.21;27.17;35.45;;
43385;Laerm;28988;48.042;7.584;2023-12-29T07:47:08;29.24;27.32;35.91;;
43385;Laerm;28988;48.042;7.584;2023-12-29T07:49:35;29.06;26.95;35.57;;
43385;Laerm;28988;48.042;7.584;2023-12-29T07:52:00;29.10;26.71;34.84;;
43385;Laerm;28988;48.042;7.584;2023-12-29T07:54:25;29.36;26.94;36.37;;
43385;Laerm;28988;48.042;7.584;2023-12-29T07:56:51;29.30;26.93;35.95;;
43385;Laerm;28988;48.042;7.584;2023-12-29T07:59:16;29.01;27.00;38.17;;
43385;Laerm;28988;48.042;7.584;2023-12-29T08:01:42;29.38;27.14;36.81;;
43385;Laerm;28988;48.042;7.584;2023-12-29T08:04:07;31.80;27.05;49.15;;
43385;Laerm;28988;48.042;7.584;2023-12-29T08:06:32;28.77;26.92;34.95;;
43385;Laerm;28988;48.042;7.584;2023-12-29T08:08:57;29.54;27.06;36.79;;
43385;Laerm;28988;48.042;7.584;2023-12-29T08:11:22;30.05;27.15;37.31;;
43385;Laerm;28988;48.042;7.584;2023-12-29T08:13:48;29.31;27.09;39.06;;
43385;Laerm;28988;48.042;7.584;2023-12-29T08:18:39;29.51;26.88;41.34;;
43385;Laerm;28988;48.042;7.584;2023-12-29T08:23:29;47.08;27.21;75.04;;
43385;Laerm;28988;48.042;7.584;2023-12-29T08:25:56;40.18;27.23;66.49;;
43385;Laerm;28988;48.042;7.584;2023-12-29T08:28:39;40.39;27.20;63.63;;
43385;Laerm;28988;48.042;7.584;2023-12-29T08:31:05;40.19;27.15;65.86;;
43385;Laerm;28988;48.042;7.584;2023-12-29T08:33:30;40.84;27.32;65.31;;
43385;Laerm;28988;48.042;7.584;2023-12-29T08:35:55;39.44;27.55;63.76;;
43385;Laerm;28988;48.042;7.584;2023-12-29T08:38:25;32.59;27.38;51.04;;
43385;Laerm;28988;48.042;7.584;2023-12-29T08:40:51;34.47;26.91;53.65;;
43385;Laerm;28988;48.042;7.584;2023-12-29T08:43:16;31.94;27.17;48.41;;
43385;Laerm;28988;48.042;7.584;2023-12-29T08:45:45;30.72;27.08;52.19;;
43385;Laerm;28988;48.042;7.584;2023-12-29T08:48:11;42.29;27.27;52.32;;
43385;Laerm;28988;48.042;7.584;2023-12-29T08:50:36;47.82;41.18;64.86;;
43385;Laerm;28988;48.042;7.584;2023-12-29T08:53:01;46.42;39.90;57.80;;
43385;Laerm;28988;48.042;7.584;2023-12-29T08:55:26;47.26;40.26;62.14;;
43385;Laerm;28988;48.042;7.584;2023-12-29T08:57:51;47.99;40.76;62.06;;
43385;Laerm;28988;48.042;7.584;2023-12-29T09:00:17;48.31;39.07;58.88;;
43385;Laerm;28988;48.042;7.584;2023-12-29T09:02:42;49.77;46.73;55.62;;
43385;Laerm;28988;48.042;7.584;2023-12-29T09:05:08;48.51;41.30;58.90;;
43385;Laerm;28988;48.042;7.584;2023-12-29T09:07:34;47.62;40.88;59.03;;
43385;Laerm;28988;48.042;7.584;2023-12-29T09:09:59;47.75;40.32;60.92;;
43385;Laerm;28988;48.042;7.584;2023-12-29T09:12:27;47.30;41.18;59.42;;
43385;Laerm;28988;48.042;7.584;2023-12-29T09:14:52;41.93;27.68;58.56;;
43385;Laerm;28988;48.042;7.584;2023-12-29T09:17:17;39.57;26.91;53.91;;
43385;Laerm;28988;48.042;7.584;2023-12-29T09:19:43;39.01;27.13;55.34;;
43385;Laerm;28988;48.042;7.584;2023-12-29T09:22:08;39.36;27.23;59.80;;
43385;Laerm;28988;48.042;7.584;2023-12-29T09:24:33;41.59;27.78;62.70;;
43385;Laerm;28988;48.042;7.584;2023-12-29T09:26:58;42.99;27.91;57.15;;
43385;Laerm;28988;48.042;7.584;2023-12-29T09:29:23;44.73;28.16;59.22;;
43385;Laerm;28988;48.042;7.584;2023-12-29T09:31:49;42.56;27.81;60.76;;
43385;Laerm;28988;48.042;7.584;2023-12-29T09:34:14;46.90;27.63;63.84;;
43385;Laerm;28988;48.042;7.584;2023-12-29T09:36:39;41.39;27.36;63.46;;
43385;Laerm;28988;48.042;7.584;2023-12-29T09:39:04;37.61;27.62;55.65;;
43385;Laerm;28988;48.042;7.584;2023-12-29T09:41:30;42.87;27.63;72.19;;
43385;Laerm;28988;48.042;7.584;2023-12-29T09:45:23;54.44;29.49;80.51;;
43385;Laerm;28988;48.042;7.584;2023-12-29T09:47:48;60.01;28.67;92.09;;
43385;Laerm;28988;48.042;7.584;2023-12-29T09:52:41;49.77;28.14;74.00;;
43385;Laerm;28988;48.042;7.584;2023-12-29T09:55:10;46.20;28.52;68.14;;
43385;Laerm;28988;48.042;7.584;2023-12-29T10:00:00;37.51;31.22;57.98;;
43385;Laerm;28988;48.042;7.584;2023-12-29T10:02:26;39.95;31.30;62.11;;
43385;Laerm;28988;48.042;7.584;2023-12-29T10:04:51;40.99;31.33;65.74;;
43385;Laerm;28988;48.042;7.584;2023-12-29T10:07:23;55.62;32.00;87.99;;
43385;Laerm;28988;48.042;7.584;2023-12-29T10:09:50;57.41;31.66;90.68;;
43385;Laerm;28988;48.042;7.584;2023-12-29T10:12:17;38.00;28.78;55.11;;
43385;Laerm;28988;48.042;7.584;2023-12-29T10:14:49;38.04;28.56;55.57;;
43385;Laerm;28988;48.042;7.584;2023-12-29T10:19:45;43.57;27.87;65.07;;
43385;Laerm;28988;48.042;7.584;2023-12-29T10:24:41;33.14;30.19;44.94;;
43385;Laerm;28988;48.042;7.584;2023-12-29T10:27:08;33.86;30.09;46.56;;
43385;Laerm;28988;48.042;7.584;2023-12-29T10:29:33;36.65;30.52;53.71;;
43385;Laerm;28988;48.042;7.584;2023-12-29T10:31:59;42.09;30.62;64.82;;
43385;Laerm;28988;48.042;7.584;2023-12-29T10:34:24;61.85;30.18;84.14;;
43385;Laerm;28988;48.042;7.584;2023-12-29T10:36:57;53.78;30.54;81.43;;
43385;Laerm;28988;48.042;7.584;2023-12-29T10:39:22;53.80;30.72;84.57;;
43385;Laerm;28988;48.042;7.584;2023-12-29T10:41:48;37.60;30.51;54.73;;
43385;Laerm;28988;48.042;7.584;2023-12-29T10:44:14;49.67;30.31;74.50;;
43385;Laerm;28988;48.042;7.584;2023-12-29T10:46:39;43.57;30.65;70.89;;
43385;Laerm;28988;48.042;7.584;2023-12-29T10:49:08;38.60;30.36;55.90;;
43385;Laerm;28988;48.042;7.584;2023-12-29T10:51:36;32.24;30.36;44.43;;
43385;Laerm;28988;48.042;7.584;2023-12-29T10:54:04;32.26;30.33;39.95;;
43385;Laerm;28988;48.042;7.584;2023-12-29T10:56:30;32.22;30.39;43.33;;
43385;Laerm;28988;48.042;7.584;2023-12-29T10:58:59;32.14;29.89;34.22;;
43385;Laerm;28988;48.042;7.584;2023-12-29T11:01:25;30.08;27.21;38.81;;
43385;Laerm;28988;48.042;7.584;2023-12-29T11:04:05;28.68;26.98;42.15;;
43385;Laerm;28988;48.042;7.584;2023-12-29T11:06:41;28.73;27.22;41.55;;
43385;Laerm;28988;48.042;7.584;2023-12-29T11:09:09;28.49;27.05;33.36;;
43385;Laerm;28988;48.042;7.584;2023-12-29T11:11:34;28.38;27.08;33.10;;
43385;Laerm;28988;48.042;7.584;2023-12-29T11:14:01;29.41;27.03;47.29;;
43385;Laerm;28988;48.042;7.584;2023-12-29T11:16:27;32.68;27.26;36.23;;
43385;Laerm;28988;48.042;7.584;2023-12-29T11:18:54;33.00;30.26;37.63;;
43385;Laerm;28988;48.042;7.584;2023-12-29T11:21:21;33.66;30.45;40.15;;
43385;Laerm;28988;48.042;7.584;2023-12-29T11:23:47;35.38;31.20;42.01;;
43385;Laerm;28988;48.042;7.584;2023-12-29T11:26:12;30.90;27.09;40.11;;
43385;Laerm;28988;48.042;7.584;2023-12-29T11:28:37;28.60;27.20;35.85;;
43385;Laerm;28988;48.042;7.584;2023-12-29T11:31:03;28.53;27.21;35.29;;
43385;Laerm;28988;48.042;7.584;2023-12-29T11:33:31;28.53;27.16;38.20;;
43385;Laerm;28988;48.042;7.584;2023-12-29T11:36:01;28.51;27.07;39.01;;
43385;Laerm;28988;48.042;7.584;2023-12-29T11:38:41;29.00;27.14;41.68;;
43385;Laerm;28988;48.042;7.584;2023-12-29T11:41:12;28.85;27.31;39.55;;
43385;Laerm;28988;48.042;7.584;2023-12-29T11:43:40;28.58;27.18;36.08;;
43385;Laerm;28988;48.042;7.584;2023-12-29T11:46:05;28.94;27.14;38.46;;
43385;Laerm;28988;48.042;7.584;2023-12-29T11:48:52;28.58;27.19;37.76;;
43385;Laerm;28988;48.042;7.584;2023-12-29T11:51:27;28.74;26.89;41.07;;
43385;Laerm;28988;48.042;7.584;2023-12-29T11:53:53;28.51;27.03;31.62;;
43385;Laerm;28988;48.042;7.584;2023-12-29T11:56:18;28.49;27.09;34.54;;
43385;Laerm;28988;48.042;7.584;2023-12-29T11:58:43;28.40;27.11;32.50;;
43385;Laerm;28988;48.042;7.584;2023-12-29T12:01:08;28.48;27.19;37.78;;
43385;Laerm;28988;48.042;7.584;2023-12-29T12:03:33;28.79;26.90;39.45;;
43385;Laerm;28988;48.042;7.584;2023-12-29T12:05:59;42.98;27.08;68.08;;
43385;Laerm;28988;48.042;7.584;2023-12-29T12:08:31;41.40;27.61;57.49;;
43385;Laerm;28988;48.042;7.584;2023-12-29T12:10:57;37.47;27.66;53.23;;
43385;Laerm;28988;48.042;7.584;2023-12-29T12:16:06;57.61;27.48;81.74;;
43385;Laerm;28988;48.042;7.584;2023-12-29T12:18:31;65.09;28.23;89.13;;
43385;Laerm;28988;48.042;7.584;2023-12-29T12:20:57;65.30;30.47;86.62;;
43385;Laerm;28988;48.042;7.584;2023-12-29T12:23:24;68.67;30.61;86.52;;
43385;Laerm;28988;48.042;7.584;2023-12-29T12:25:49;64.91;30.74;87.90;;
43385;Laerm;28988;48.042;7.584;2023-12-29T12:28:16;55.27;30.50;77.86;;
43385;Laerm;28988;48.042;7.584;2023-12-29T12:30:41;68.26;31.11;91.38;;
43385;Laerm;28988;48.042;7.584;2023-12-29T12:33:06;67.32;30.50;83.48;;
43385;Laerm;28988;48.042;7.584;2023-12-29T12:35:36;64.78;30.87;83.12;;
43385;Laerm;28988;48.042;7.584;2023-12-29T12:40:33;42.18;30.59;65.38;;
43385;Laerm;28988;48.042;7.584;2023-12-29T12:42:58;43.76;30.54;66.48;;
43385;Laerm;28988;48.042;7.584;2023-12-29T12:45:23;41.03;27.64;66.37;;
43385;Laerm;28988;48.042;7.584;2023-12-29T12:47:51;34.51;30.13;58.65;;
43385;Laerm;28988;48.042;7.584;2023-12-29T12:50:17;35.42;30.29;57.09;;
43385;Laerm;28988;48.042;7.584;2023-12-29T12:52:43;38.01;30.34;64.33;;
43385;Laerm;28988;48.042;7.584;2023-12-29T12:55:08;39.82;30.57;62.96;;
43385;Laerm;28988;48.042;7.584;2023-12-29T12:57:34;37.09;30.26;55.44;;
43385;Laerm;28988;48.042;7.584;2023-12-29T13:00:00;35.20;27.13;56.88;;
43385;Laerm;28988;48.042;7.584;2023-12-29T13:02:27;35.56;27.33;47.21;;
43385;Laerm;28988;48.042;7.584;2023-12-29T13:04:53;38.43;27.43;57.14;;
43385;Laerm;28988;48.042;7.584;2023-12-29T13:07:18;38.71;27.32;53.96;;
43385;Laerm;28988;48.042;7.584;2023-12-29T13:09:45;56.96;27.62;77.21;;
43385;Laerm;28988;48.042;7.584;2023-12-29T13:12:11;39.26;27.64;54.44;;
43385;Laerm;28988;48.042;7.584;2023-12-29T13:14:36;39.17;27.59;52.94;;
43385;Laerm;28988;48.042;7.584;2023-12-29T13:19:33;59.80;28.66;92.04;;
43385;Laerm;28988;48.042;7.584;2023-12-29T13:21:59;55.74;27.62;87.19;;
43385;Laerm;28988;48.042;7.584;2023-12-29T13:24:25;42.57;28.02;70.20;;
43385;Laerm;28988;48.042;7.584;2023-12-29T13:26:51;37.15;31.06;56.52;;
43385;Laerm;28988;48.042;7.584;2023-12-29T13:29:20;37.70;30.72;51.98;;
43385;Laerm;28988;48.042;7.584;2023-12-29T13:36:38;40.78;32.30;61.65;;
43385;Laerm;28988;48.042;7.584;2023-12-29T13:39:08;38.11;31.12;57.53;;
43385;Laerm;28988;48.042;7.584;2023-12-29T13:41:34;45.12;30.81;71.35;;
43385;Laerm;28988;48.042;7.584;2023-12-29T13:44:01;51.74;30.93;81.83;;
43385;Laerm;28988;48.042;7.584;2023-12-29T13:46:26;46.50;31.06;72.92;;
43385;Laerm;28988;48.042;7.584;2023-12-29T13:48:52;48.64;31.10;79.59;;
43385;Laerm;28988;48.042;7.584;2023-12-29T13:51:22;41.34;31.48;65.06;;
43385;Laerm;28988;48.042;7.584;2023-12-29T13:53:48;35.75;30.59;45.50;;
43385;Laerm;28988;48.042;7.584;2023-12-29T13:56:13;41.39;27.56;60.48;;
43385;Laerm;28988;48.042;7.584;2023-12-29T13:58:38;45.53;27.80;72.74;;
43385;Laerm;28988;48.042;7.584;2023-12-29T14:01:04;54.42;30.58;89.47;;
43385;Laerm;28988;48.042;7.584;2023-12-29T14:06:00;37.28;27.60;59.21;;
43385;Laerm;28988;48.042;7.584;2023-12-29T14:08:47;37.24;27.12;56.95;;
43385;Laerm;28988;48.042;7.584;2023-12-29T14:11:11;38.27;27.40;63.57;;
43385;Laerm;28988;48.042;7.584;2023-12-29T14:13:46;38.27;27.59;59.35;;
43385;Laerm;28988;48.042;7.584;2023-12-29T14:16:13;37.26;27.55;58.74;;
43385;Laerm;28988;48.042;7.584;2023-12-29T14:21:27;47.24;27.31;78.76;;
43385;Laerm;28988;48.042;7.584;2023-12-29T14:26:24;38.07;27.37;52.54;;
43385;Laerm;28988;48.042;7.584;2023-12-29T14:28:59;37.24;27.44;50.01;;
43385;Laerm;28988;48.042;7.584;2023-12-29T14:33:49;37.58;30.55;51.13;;
43385;Laerm;28988;48.042;7.584;2023-12-29T14:36:15;37.54;27.57;52.22;;
43385;Laerm;28988;48.042;7.584;2023-12-29T14:38:40;39.73;27.60;53.47;;
43385;Laerm;28988;48.042;7.584;2023-12-29T14:41:05;36.31;27.44;49.28;;
43385;Laerm;28988;48.042;7.584;2023-12-29T14:43:31;39.00;27.54;57.80;;
43385;Laerm;28988;48.042;7.584;2023-12-29T14:48:21;0.00;0.00;0.00;;
43385;Laerm;28988;48.042;7.584;2023-12-29T14:53:14;38.33;27.50;53.68;;
43385;Laerm;28988;48.042;7.584;2023-12-29T14:55:39;39.66;27.37;63.04;;